Maple Ridge, Canada
Current Conditions -  °F | °C
As of 12:00 AM on Tuesday 27 Jan 2015 (Local Time) from CYXX Reporting Station
Moderate Fog Moderate Fog  
Wind Chill:   Ceiling: 22000
Heat Index:   Visibility: 0.5mi
Dew Point:   Wind: 2mph
Humidity: 100%   Direction: NA
Pressure: 29.97"   Gusts: NA
Location:  49.22°N, 122.6°W
Report Text: CYXX 270800Z VRB02KT 1/2SM R07/4000VP6000FT/U FG BKN220 03/03 A2997 RMK FG2CI4 SLP149
Loading
Personal Weather Stations






























Interactive Weather Map New forecast layout! Learn more

10-Day Weather Forecast

Advertisements
Track Severe Weather on mobile